createdAt,value
2017-05-14T00:00:19.983Z,86.17
2017-05-14T00:01:00.619Z,85.98
2017-05-14T00:01:41.274Z,85.79
2017-05-14T00:02:21.904Z,85.79
2017-05-14T00:03:02.508Z,85.79
2017-05-14T00:03:43.121Z,85.79
2017-05-14T00:04:23.712Z,85.69
2017-05-14T00:05:04.324Z,85.69
2017-05-14T00:05:44.970Z,85.41
2017-05-14T00:06:25.575Z,85.79
2017-05-14T00:07:06.180Z,85.98
2017-05-14T00:07:46.792Z,85.98
2017-05-14T00:08:27.383Z,85.98
2017-05-14T00:09:07.976Z,85.69
2017-05-14T00:09:48.565Z,85.69
2017-05-14T00:10:29.161Z,85.98
2017-05-14T00:11:09.743Z,86.27
2017-05-14T00:11:50.316Z,86.27
2017-05-14T00:12:30.905Z,86.27
2017-05-14T00:13:11.495Z,86.27
2017-05-14T00:13:52.084Z,85.98
2017-05-14T00:14:32.654Z,85.98
2017-05-14T00:15:13.247Z,86.08
2017-05-14T00:15:53.830Z,86.08
2017-05-14T00:16:34.456Z,86.27
2017-05-14T00:17:15.054Z,86.27
2017-05-14T00:17:55.688Z,85.79
2017-05-14T00:18:36.299Z,86.08
2017-05-14T00:19:16.894Z,85.41
2017-05-14T00:19:57.472Z,85.98
2017-05-14T00:20:38.094Z,85.79
2017-05-14T00:21:18.669Z,85.6
2017-05-14T00:21:59.264Z,85.69
2017-05-14T00:22:39.851Z,86.36
2017-05-14T00:23:20.433Z,86.17
2017-05-14T00:24:01.024Z,86.27
2017-05-14T00:24:41.628Z,86.17
2017-05-14T00:25:22.206Z,86.17
2017-05-14T00:26:02.781Z,86.17
2017-05-14T00:26:43.341Z,86.08
2017-05-14T00:27:23.940Z,85.88
2017-05-14T00:28:04.517Z,86.17
2017-05-14T00:28:45.108Z,86.27
2017-05-14T00:29:25.692Z,85.98
2017-05-14T00:30:06.273Z,86.27
2017-05-14T00:30:46.865Z,86.27
2017-05-14T00:31:27.462Z,86.36
2017-05-14T00:32:08.085Z,86.36
2017-05-14T00:32:48.698Z,86.27
2017-05-14T00:33:29.293Z,86.27
2017-05-14T00:34:09.859Z,86.46
2017-05-14T00:34:50.442Z,86.55
2017-05-14T00:35:31.032Z,86.08
2017-05-14T00:36:11.640Z,86.27
2017-05-14T00:36:52.244Z,86.08
2017-05-14T00:37:32.844Z,85.98
2017-05-14T00:38:13.411Z,86.08
2017-05-14T00:38:53.981Z,86.17
2017-05-14T00:39:34.560Z,86.36
2017-05-14T00:40:15.140Z,86.27
2017-05-14T00:40:55.745Z,86.17
2017-05-14T00:41:36.323Z,85.98
2017-05-14T00:42:16.925Z,85.6
2017-05-14T00:42:57.499Z,85.6
2017-05-14T00:43:38.090Z,85.69
2017-05-14T00:44:18.661Z,85.69
2017-05-14T00:44:59.240Z,85.79
2017-05-14T00:45:39.830Z,85.79
2017-05-14T00:46:20.419Z,85.79
2017-05-14T00:47:01.006Z,85.79
2017-05-14T00:47:41.592Z,85.98
2017-05-14T00:48:22.187Z,86.27
2017-05-14T00:49:02.792Z,86.17
2017-05-14T00:49:43.379Z,86.17
2017-05-14T00:50:23.954Z,85.88
2017-05-14T00:51:04.554Z,85.98
2017-05-14T00:51:45.141Z,86.17
2017-05-14T00:52:25.707Z,85.98
2017-05-14T00:53:06.293Z,86.36
2017-05-14T00:53:46.871Z,86.36
2017-05-14T00:54:27.487Z,86.27
2017-05-14T00:55:08.064Z,86.08
2017-05-14T00:55:48.657Z,86.27
2017-05-14T00:56:29.242Z,86.17
2017-05-14T00:57:09.823Z,85.98
2017-05-14T00:57:50.417Z,85.98
2017-05-14T00:58:31.037Z,86.17
2017-05-14T00:59:11.637Z,86.08
2017-05-14T00:59:52.209Z,86.08
2017-05-14T01:00:32.785Z,86.27
2017-05-14T01:01:13.385Z,86.08
2017-05-14T01:01:53.971Z,86.17
2017-05-14T01:02:34.551Z,86.36
2017-05-14T01:03:15.115Z,86.27
2017-05-14T01:03:55.674Z,86.17
2017-05-14T01:04:36.247Z,86.27
2017-05-14T01:05:16.844Z,86.65
2017-05-14T01:05:57.404Z,86.65
2017-05-14T01:06:38.062Z,86.27
2017-05-14T01:07:18.637Z,85.98
2017-05-14T01:07:59.213Z,85.88
2017-05-14T01:08:39.784Z,86.17
2017-05-14T01:09:20.359Z,86.27
2017-05-14T01:10:00.937Z,86.08
2017-05-14T01:10:41.566Z,85.6
2017-05-14T01:11:22.149Z,85.69
2017-05-14T01:12:02.728Z,85.69
2017-05-14T01:12:43.310Z,85.79
2017-05-14T01:13:23.895Z,85.88
2017-05-14T01:14:04.506Z,85.6
2017-05-14T01:14:45.072Z,85.5
2017-05-14T01:15:25.642Z,85.5
2017-05-14T01:16:06.225Z,85.65
2017-05-14T01:16:46.792Z,85.17
2017-05-14T01:17:27.363Z,85.21
2017-05-14T01:18:07.965Z,85.12
2017-05-14T01:18:48.563Z,85.31
2017-05-14T01:19:29.132Z,85.41
2017-05-14T01:20:09.733Z,85.12
2017-05-14T01:20:50.325Z,85.12
2017-05-14T01:21:30.920Z,85.6
2017-05-14T01:22:11.503Z,85.31
2017-05-14T01:22:52.084Z,85.55
2017-05-14T01:23:32.659Z,85.5
2017-05-14T01:24:13.240Z,85.5
2017-05-14T01:24:53.831Z,85.84
2017-05-14T01:25:34.414Z,85.79
2017-05-14T01:26:15.015Z,85.65
2017-05-14T01:26:55.593Z,86.17
2017-05-14T01:27:36.171Z,85.5
2017-05-14T01:28:16.741Z,85.65
2017-05-14T01:28:57.350Z,85.46
2017-05-14T01:29:37.895Z,85.46
2017-05-14T01:30:18.482Z,85.36
2017-05-14T01:30:59.073Z,85.46
2017-05-14T01:31:39.669Z,85.46
2017-05-14T01:32:20.251Z,85.65
2017-05-14T01:33:00.822Z,86.13
2017-05-14T01:33:41.416Z,86.13
2017-05-14T01:34:21.993Z,86.22
2017-05-14T01:35:02.587Z,86.13
2017-05-14T01:35:43.162Z,86.04
2017-05-14T01:36:23.753Z,86.61
2017-05-14T01:37:04.336Z,86.8
2017-05-14T01:37:44.915Z,86.61
2017-05-14T01:38:25.492Z,86.99
2017-05-14T01:39:06.074Z,86.8
2017-05-14T01:39:46.651Z,86.9
2017-05-14T01:40:27.225Z,86.8
2017-05-14T01:41:07.819Z,87.37
2017-05-14T01:41:48.402Z,87.18
2017-05-14T01:42:28.974Z,87.27
2017-05-14T01:43:09.555Z,87.37
2017-05-14T01:43:50.154Z,86.99
2017-05-14T01:44:30.752Z,87.27
2017-05-14T01:45:11.349Z,87.37
2017-05-14T01:45:51.927Z,87.47
2017-05-14T01:46:32.519Z,87.18
2017-05-14T01:47:13.085Z,86.7
2017-05-14T01:47:53.663Z,86.61
2017-05-14T01:48:34.237Z,86.7
2017-05-14T01:49:14.821Z,86.8
2017-05-14T01:49:55.404Z,86.9
2017-05-14T01:50:35.989Z,86.8
2017-05-14T01:51:16.564Z,86.61
2017-05-14T01:51:57.141Z,86.51
2017-05-14T01:52:37.722Z,86.61
2017-05-14T01:53:18.300Z,86.8
2017-05-14T01:53:58.875Z,86.61
2017-05-14T01:54:39.455Z,86.04
2017-05-14T01:55:20.036Z,86.04
2017-05-14T01:56:00.640Z,85.84
2017-05-14T01:56:41.216Z,86.32
2017-05-14T01:57:21.804Z,85.84
2017-05-14T01:58:02.385Z,86.22
2017-05-14T01:58:42.980Z,86.13
2017-05-14T01:59:23.557Z,86.41
2017-05-14T02:00:04.133Z,86.13
2017-05-14T02:00:44.743Z,86.22
2017-05-14T02:01:25.308Z,86.41
2017-05-14T02:02:05.904Z,85.55
2017-05-14T02:02:46.479Z,85.84
2017-05-14T02:03:27.053Z,85.75
2017-05-14T02:04:07.667Z,85.84
2017-05-14T02:04:48.311Z,85.75
2017-05-14T02:05:28.885Z,85.55
2017-05-14T02:06:09.450Z,85.75
2017-05-14T02:06:50.018Z,85.55
2017-05-14T02:07:30.643Z,85.65
2017-05-14T02:08:11.200Z,86.22
2017-05-14T02:08:51.771Z,86.32
2017-05-14T02:09:32.359Z,86.22
2017-05-14T02:10:12.962Z,86.04
2017-05-14T02:10:53.535Z,85.84
2017-05-14T02:11:34.117Z,85.75
2017-05-14T02:12:14.710Z,85.89
2017-05-14T02:12:55.318Z,85.55
2017-05-14T02:13:35.927Z,85.55
2017-05-14T02:14:16.520Z,85.55
2017-05-14T02:14:57.103Z,85.75
2017-05-14T02:15:37.681Z,85.94
2017-05-14T02:16:18.265Z,85.75
2017-05-14T02:16:58.856Z,85.55
2017-05-14T02:17:39.430Z,86.04
2017-05-14T02:18:19.992Z,86.04
2017-05-14T02:19:00.564Z,86.04
2017-05-14T02:19:41.156Z,86.04
2017-05-14T02:20:21.749Z,85.55
2017-05-14T02:21:02.340Z,86.22
2017-05-14T02:21:42.900Z,86.22
2017-05-14T02:22:23.474Z,85.84
2017-05-14T02:23:04.058Z,85.75
2017-05-14T02:23:44.649Z,85.61
2017-05-14T02:24:25.253Z,85.36
2017-05-14T02:25:05.844Z,85.46
2017-05-14T02:25:46.444Z,85.22
2017-05-14T02:26:27.039Z,85.08
2017-05-14T02:27:07.607Z,85.22
2017-05-14T02:27:48.200Z,85.13
2017-05-14T02:28:28.794Z,84.55
2017-05-14T02:29:09.396Z,85.13
2017-05-14T02:29:49.986Z,85.22
2017-05-14T02:30:30.564Z,85.41
2017-05-14T02:31:11.136Z,85.41
2017-05-14T02:31:51.720Z,85.89
2017-05-14T02:32:32.293Z,85.71
2017-05-14T02:33:12.870Z,85.51
2017-05-14T02:33:53.500Z,85.51
2017-05-14T02:34:34.061Z,85.99
2017-05-14T02:35:14.641Z,85.51
2017-05-14T02:35:55.218Z,85.71
2017-05-14T02:36:35.798Z,85.51
2017-05-14T02:37:16.387Z,85.61
2017-05-14T02:37:56.958Z,85.71
2017-05-14T02:38:37.529Z,85.61
2017-05-14T02:39:18.184Z,85.32
2017-05-14T02:39:58.732Z,85.41
2017-05-14T02:40:39.313Z,85.41
2017-05-14T02:41:19.874Z,85.99
2017-05-14T02:42:00.458Z,85.51
2017-05-14T02:42:41.069Z,85.71
2017-05-14T02:43:21.657Z,85.51
2017-05-14T02:44:02.242Z,85.61
2017-05-14T02:44:42.802Z,86.08
2017-05-14T02:45:23.386Z,86.08
2017-05-14T02:46:03.953Z,86.18
2017-05-14T02:46:44.533Z,85.89
2017-05-14T02:47:25.121Z,85.71
2017-05-14T02:48:05.722Z,85.61
2017-05-14T02:48:46.300Z,85.71
2017-05-14T02:49:26.905Z,85.51
2017-05-14T02:50:07.477Z,85.51
2017-05-14T02:50:48.051Z,85.71
2017-05-14T02:51:28.635Z,85.41
2017-05-14T02:52:09.223Z,85.71
2017-05-14T02:52:49.862Z,85.71
2017-05-14T02:53:30.442Z,85.8
2017-05-14T02:54:11.018Z,85.41
2017-05-14T02:54:51.595Z,85.41
2017-05-14T02:55:32.193Z,85.51
2017-05-14T02:56:12.771Z,85.51
2017-05-14T02:56:53.358Z,84.94
2017-05-14T02:57:33.956Z,85.22
2017-05-14T02:58:14.541Z,85.41
2017-05-14T02:58:55.161Z,85.22
2017-05-14T02:59:35.688Z,85.22
2017-05-14T03:00:16.262Z,85.22
2017-05-14T03:00:56.864Z,85.41
2017-05-14T03:01:37.432Z,85.22
2017-05-14T03:02:17.996Z,85.32
2017-05-14T03:02:58.568Z,85.03
2017-05-14T03:03:39.153Z,85.22
2017-05-14T03:04:19.717Z,85.22
2017-05-14T03:05:00.296Z,85.22
2017-05-14T03:05:40.885Z,84.94
2017-05-14T03:06:21.466Z,85.13
2017-05-14T03:07:02.055Z,85.13
2017-05-14T03:07:42.657Z,85.03
2017-05-14T03:08:23.206Z,85.03
2017-05-14T03:09:03.774Z,85.61
2017-05-14T03:09:44.372Z,85.32
2017-05-14T03:10:24.938Z,85.8
2017-05-14T03:11:05.517Z,85.41
2017-05-14T03:11:46.081Z,85.32
2017-05-14T03:12:26.656Z,85.51
2017-05-14T03:13:07.236Z,85.41
2017-05-14T03:13:47.838Z,85.22
2017-05-14T03:14:28.404Z,85.51
2017-05-14T03:15:08.989Z,85.51
2017-05-14T03:15:49.583Z,85.8
2017-05-14T03:16:30.146Z,85.71
2017-05-14T03:17:10.710Z,85.32
2017-05-14T03:17:51.302Z,85.51
2017-05-14T03:18:31.948Z,84.94
2017-05-14T03:19:12.472Z,85.13
2017-05-14T03:19:53.053Z,84.65
2017-05-14T03:20:33.638Z,84.94
2017-05-14T03:21:14.218Z,85.03
2017-05-14T03:21:54.819Z,84.84
2017-05-14T03:22:35.393Z,84.75
2017-05-14T03:23:15.980Z,84.94
2017-05-14T03:23:56.595Z,84.55
2017-05-14T03:24:37.185Z,84.27
2017-05-14T03:25:17.768Z,84.27
2017-05-14T03:25:58.347Z,85.03
2017-05-14T03:26:38.958Z,84.8
2017-05-14T03:27:19.560Z,84.7
2017-05-14T03:28:00.152Z,84.65
2017-05-14T03:28:40.720Z,85.03
2017-05-14T03:29:21.307Z,85.03
2017-05-14T03:30:01.927Z,84.65
2017-05-14T03:30:42.524Z,84.17
2017-05-14T03:31:23.123Z,84.52
2017-05-14T03:32:03.702Z,84.46
2017-05-14T03:32:44.271Z,84.42
2017-05-14T03:33:24.879Z,84.46
2017-05-14T03:34:05.466Z,84.32
2017-05-14T03:34:46.083Z,84.13
2017-05-14T03:35:26.666Z,84.13
2017-05-14T03:36:07.228Z,84.03
2017-05-14T03:36:47.836Z,84.42
2017-05-14T03:37:28.401Z,84.32
2017-05-14T03:38:08.993Z,84.42
2017-05-14T03:38:49.595Z,84.32
2017-05-14T03:39:30.165Z,84.23
2017-05-14T03:40:10.801Z,84.13
2017-05-14T03:40:51.379Z,83.94
2017-05-14T03:41:31.979Z,84.13
2017-05-14T03:42:12.599Z,84.23
2017-05-14T03:42:53.185Z,84.13
2017-05-14T03:43:33.797Z,84.42
2017-05-14T03:44:14.398Z,84.32
2017-05-14T03:44:54.996Z,84.23
2017-05-14T03:45:35.590Z,84.8
2017-05-14T03:46:16.164Z,84.52
2017-05-14T03:46:56.755Z,85.09
2017-05-14T03:47:37.335Z,84.99
2017-05-14T03:48:17.908Z,84.99
2017-05-14T03:48:58.495Z,84.89
2017-05-14T03:49:39.071Z,84.89
2017-05-14T03:50:19.647Z,85.09
2017-05-14T03:51:00.251Z,84.89
2017-05-14T03:51:40.829Z,84.99
2017-05-14T03:52:21.403Z,84.99
2017-05-14T03:53:02.016Z,84.52
2017-05-14T03:53:42.600Z,84.99
2017-05-14T03:54:23.183Z,84.13
2017-05-14T03:55:03.753Z,84.32
2017-05-14T03:55:44.335Z,84.13
2017-05-14T03:56:24.943Z,84.32
2017-05-14T03:57:05.500Z,84.7
2017-05-14T03:57:46.074Z,84.52
2017-05-14T03:58:26.654Z,84.8
2017-05-14T03:59:07.234Z,84.8
2017-05-14T03:59:47.820Z,85.18
2017-05-14T04:00:28.406Z,85.18
2017-05-14T04:01:09.000Z,85.57
2017-05-14T04:01:49.582Z,85.57
2017-05-14T04:02:30.182Z,85.09
2017-05-14T04:03:10.773Z,84.8
2017-05-14T04:03:51.344Z,85.18
2017-05-14T04:04:31.914Z,85.09
2017-05-14T04:05:12.491Z,84.99
2017-05-14T04:05:53.086Z,84.99
2017-05-14T04:06:33.664Z,84.52
2017-05-14T04:07:14.233Z,84.23
2017-05-14T04:07:54.801Z,84.23
2017-05-14T04:08:35.393Z,84.42
2017-05-14T04:09:15.975Z,83.84
2017-05-14T04:09:56.545Z,84.32
2017-05-14T04:10:37.137Z,84.32
2017-05-14T04:11:17.717Z,84.32
2017-05-14T04:11:58.327Z,84.52
2017-05-14T04:12:38.930Z,84.13
2017-05-14T04:13:19.516Z,84.8
2017-05-14T04:14:00.102Z,84.52
2017-05-14T04:14:40.688Z,85.09
2017-05-14T04:15:21.262Z,85.09
2017-05-14T04:16:01.843Z,84.7
2017-05-14T04:16:42.439Z,84.52
2017-05-14T04:17:23.026Z,84.89
2017-05-14T04:18:03.614Z,84.61
2017-05-14T04:18:44.186Z,84.42
2017-05-14T04:19:24.750Z,84.65
2017-05-14T04:20:05.362Z,84.8
2017-05-14T04:20:45.966Z,84.89
2017-05-14T04:21:26.561Z,84.52
2017-05-14T04:22:07.172Z,84.84
2017-05-14T04:22:47.757Z,84.84
2017-05-14T04:23:28.316Z,84.84
2017-05-14T04:24:08.895Z,84.65
2017-05-14T04:24:49.469Z,84.36
2017-05-14T04:25:30.060Z,84.27
2017-05-14T04:26:10.650Z,84.55
2017-05-14T04:26:51.247Z,84.36
2017-05-14T04:27:31.835Z,84.46
2017-05-14T04:28:12.406Z,84.36
2017-05-14T04:28:53.007Z,84.36
2017-05-14T04:29:33.588Z,83.98
2017-05-14T04:30:14.199Z,83.79
2017-05-14T04:30:54.748Z,83.79
2017-05-14T04:31:35.323Z,83.98
2017-05-14T04:32:15.912Z,83.89
2017-05-14T04:32:56.502Z,83.03
2017-05-14T04:33:37.093Z,82.93
2017-05-14T04:34:17.698Z,83.89
2017-05-14T04:34:58.271Z,83.5
2017-05-14T04:35:38.847Z,83.5
2017-05-14T04:36:19.438Z,82.93
2017-05-14T04:37:00.009Z,83.31
2017-05-14T04:37:40.625Z,83.31
2017-05-14T04:38:21.207Z,83.22
2017-05-14T04:39:01.822Z,83.89
2017-05-14T04:39:42.411Z,83.5
2017-05-14T04:40:22.982Z,83.79
2017-05-14T04:41:03.580Z,83.69
2017-05-14T04:41:44.167Z,83.89
2017-05-14T04:42:24.753Z,83.31
2017-05-14T04:43:05.328Z,83.4
2017-05-14T04:43:45.898Z,83.4
2017-05-14T04:44:26.476Z,83.89
2017-05-14T04:45:07.053Z,83.69
2017-05-14T04:45:47.656Z,83.6
2017-05-14T04:46:28.253Z,83.5
2017-05-14T04:47:08.836Z,83.6
2017-05-14T04:47:49.411Z,83.69
2017-05-14T04:48:29.983Z,83.79
2017-05-14T04:49:10.581Z,83.79
2017-05-14T04:49:51.180Z,83.79
2017-05-14T04:50:31.779Z,83.89
2017-05-14T04:51:12.386Z,83.98
2017-05-14T04:51:52.968Z,83.89
2017-05-14T04:52:33.560Z,84.08
2017-05-14T04:53:14.158Z,83.89
2017-05-14T04:53:54.736Z,83.89
2017-05-14T04:54:35.318Z,83.69
2017-05-14T04:55:15.907Z,83.89
2017-05-14T04:55:56.480Z,83.89
2017-05-14T04:56:37.086Z,83.69
2017-05-14T04:57:17.684Z,83.89
2017-05-14T04:57:58.262Z,84.08
2017-05-14T04:58:38.856Z,83.98
2017-05-14T04:59:19.433Z,83.89
2017-05-14T05:00:00.011Z,83.98
2017-05-14T05:00:40.579Z,83.98
2017-05-14T05:01:21.170Z,83.89
2017-05-14T05:02:01.747Z,83.79
2017-05-14T05:02:42.352Z,83.89
2017-05-14T05:03:22.945Z,83.93
2017-05-14T05:04:03.531Z,83.89
2017-05-14T05:04:44.126Z,83.73
2017-05-14T05:05:24.730Z,83.69
2017-05-14T05:06:05.322Z,83.98
2017-05-14T05:06:45.901Z,83.89
2017-05-14T05:07:26.505Z,83.93
2017-05-14T05:08:07.098Z,83.93
2017-05-14T05:08:47.681Z,84.12
2017-05-14T05:09:28.310Z,84.08
2017-05-14T05:10:08.893Z,84.02
2017-05-14T05:10:49.477Z,84.31
2017-05-14T05:11:30.066Z,83.73
2017-05-14T05:12:10.641Z,83.93
2017-05-14T05:12:51.220Z,84.22
2017-05-14T05:13:31.821Z,84.41
2017-05-14T05:14:12.409Z,84.5
2017-05-14T05:14:52.993Z,84.5
2017-05-14T05:15:33.576Z,84.22
2017-05-14T05:16:14.165Z,84.22
2017-05-14T05:16:54.761Z,84.31
2017-05-14T05:17:35.359Z,84.22
2017-05-14T05:18:15.935Z,84.02
2017-05-14T05:18:56.529Z,84.02
2017-05-14T05:19:37.112Z,84.02
2017-05-14T05:20:17.671Z,84.02
2017-05-14T05:20:58.248Z,84.22
2017-05-14T05:21:38.816Z,83.93
2017-05-14T05:22:19.393Z,84.12
2017-05-14T05:22:59.984Z,83.93
2017-05-14T05:23:40.558Z,83.93
2017-05-14T05:24:21.141Z,84.02
2017-05-14T05:25:01.747Z,83.93
2017-05-14T05:25:42.319Z,83.93
2017-05-14T05:26:22.888Z,83.83
2017-05-14T05:27:03.475Z,84.02
2017-05-14T05:27:44.058Z,83.83
2017-05-14T05:28:24.694Z,84.22
2017-05-14T05:29:05.267Z,84.22
2017-05-14T05:29:45.888Z,84.22
2017-05-14T05:30:26.492Z,84.12
2017-05-14T05:31:07.083Z,83.93
2017-05-14T05:31:47.718Z,84.22
2017-05-14T05:32:28.327Z,84.22
2017-05-14T05:33:08.907Z,84.12
2017-05-14T05:33:49.507Z,83.97
2017-05-14T05:34:30.107Z,84.06
2017-05-14T05:35:10.709Z,84.16
2017-05-14T05:35:51.289Z,83.2
2017-05-14T05:36:31.888Z,83.59
2017-05-14T05:37:12.477Z,83.59
2017-05-14T05:37:53.077Z,83.59
2017-05-14T05:38:33.683Z,82.86
2017-05-14T05:39:14.257Z,82.67
2017-05-14T05:39:54.852Z,83.05
2017-05-14T05:40:35.442Z,82.19
2017-05-14T05:41:16.076Z,82.57
2017-05-14T05:41:56.645Z,81.9
2017-05-14T05:42:37.224Z,81.71
2017-05-14T05:43:17.811Z,81.56
2017-05-14T05:43:58.386Z,81.37
2017-05-14T05:44:38.973Z,81.08
2017-05-14T05:45:19.596Z,80.79
2017-05-14T05:46:00.176Z,80.22
2017-05-14T05:46:40.765Z,79.74
2017-05-14T05:47:21.387Z,80.16
2017-05-14T05:48:01.975Z,79.55
2017-05-14T05:48:42.576Z,79.59
2017-05-14T05:49:23.176Z,79.21
2017-05-14T05:50:03.786Z,78.82
2017-05-14T05:50:44.359Z,78.82
2017-05-14T05:51:24.964Z,78.28
2017-05-14T05:52:05.581Z,77.71
2017-05-14T05:52:46.180Z,77.9
2017-05-14T05:53:26.780Z,77.8
2017-05-14T05:54:07.413Z,77.23
2017-05-14T05:54:48.071Z,77.04
2017-05-14T05:55:28.607Z,77.13
2017-05-14T05:56:09.191Z,76.88
2017-05-14T05:56:49.774Z,76.5
2017-05-14T05:57:30.371Z,76.59
2017-05-14T05:58:10.954Z,76.4
2017-05-14T05:58:51.533Z,76.02
2017-05-14T05:59:32.186Z,75.92
2017-05-14T06:00:12.773Z,75.45
2017-05-14T06:00:53.358Z,74.9
2017-05-14T06:01:33.957Z,75.2
2017-05-14T06:02:14.552Z,74.33
2017-05-14T06:02:55.169Z,74.71
2017-05-14T06:03:35.800Z,74.43
2017-05-14T06:04:16.416Z,74.37
2017-05-14T06:04:56.995Z,73.79
2017-05-14T06:05:37.591Z,73.5
2017-05-14T06:06:18.183Z,73.02
2017-05-14T06:06:58.774Z,72.54
2017-05-14T06:07:39.385Z,72.19
2017-05-14T06:08:19.972Z,71.91
2017-05-14T06:09:00.576Z,71.61
2017-05-14T06:09:41.169Z,71.91
2017-05-14T06:10:21.779Z,71.42
2017-05-14T06:11:02.367Z,71.33
2017-05-14T06:11:42.941Z,71.36
2017-05-14T06:12:23.564Z,70.98
2017-05-14T06:13:04.149Z,70.5
2017-05-14T06:13:44.763Z,70.4
2017-05-14T06:14:25.345Z,70.01
2017-05-14T06:15:05.947Z,69.44
2017-05-14T06:15:46.650Z,68.96
2017-05-14T06:16:27.236Z,69.28
2017-05-14T06:17:07.842Z,67.8
2017-05-14T06:17:48.430Z,67.8
2017-05-14T06:18:29.033Z,67.16
2017-05-14T06:19:09.623Z,67.16
2017-05-14T06:19:50.224Z,68.13
2017-05-14T06:20:30.837Z,67.83
2017-05-14T06:21:11.431Z,68.13
2017-05-14T06:21:52.025Z,68.51
2017-05-14T06:22:32.614Z,68.13
2017-05-14T06:23:13.214Z,67
2017-05-14T06:23:53.804Z,65.75
2017-05-14T06:24:34.417Z,65.37
2017-05-14T06:25:14.977Z,65.27
2017-05-14T06:25:55.603Z,64.69
2017-05-14T06:26:36.181Z,64.5
2017-05-14T06:27:16.822Z,64.02
2017-05-14T06:27:57.386Z,64.34
2017-05-14T06:28:37.975Z,64.25
2017-05-14T06:29:18.577Z,63.95
2017-05-14T06:29:59.172Z,63.76
2017-05-14T06:30:39.755Z,63.57
2017-05-14T06:31:20.361Z,63.12
2017-05-14T06:32:00.953Z,63.7
2017-05-14T06:32:41.548Z,63.31
2017-05-14T06:33:22.131Z,62.35
2017-05-14T06:34:02.720Z,61.29
2017-05-14T06:34:43.306Z,61.22
2017-05-14T06:35:23.921Z,60.55
2017-05-14T06:36:04.524Z,61.03
2017-05-14T06:36:45.134Z,60.64
2017-05-14T06:37:25.751Z,60.26
2017-05-14T06:38:06.319Z,60.93
2017-05-14T06:38:46.911Z,60.35
2017-05-14T06:39:27.527Z,60.06
2017-05-14T06:40:08.127Z,61.16
2017-05-14T06:40:48.754Z,60.64
2017-05-14T06:41:29.372Z,60.74
2017-05-14T06:42:09.949Z,60.96
2017-05-14T06:42:50.545Z,60.86
2017-05-14T06:43:31.135Z,59.61
2017-05-14T06:44:11.725Z,60.1
2017-05-14T06:44:52.314Z,60.68
2017-05-14T06:45:32.920Z,60.28
2017-05-14T06:46:13.544Z,59.52
2017-05-14T06:46:54.205Z,59.9
2017-05-14T06:47:34.787Z,60.19
2017-05-14T06:48:15.385Z,59.61
2017-05-14T06:48:55.970Z,58.84
2017-05-14T06:49:36.570Z,58.36
2017-05-14T06:50:17.191Z,58.07
2017-05-14T06:50:57.773Z,58.75
2017-05-14T06:51:38.356Z,58.84
2017-05-14T06:52:18.964Z,57.78
2017-05-14T06:52:59.534Z,57.39
2017-05-14T06:53:40.109Z,58.65
2017-05-14T06:54:20.695Z,58.68
2017-05-14T06:55:01.281Z,57.81
2017-05-14T06:55:41.866Z,56.36
2017-05-14T06:56:22.453Z,55.94
2017-05-14T06:57:03.030Z,56.24
2017-05-14T06:57:43.627Z,56.81
2017-05-14T06:58:24.736Z,57.68
2017-05-14T06:59:07.349Z,57.37
2017-05-14T06:59:48.929Z,57.85
2017-05-14T07:00:32.118Z,58.72
2017-05-14T07:01:18.275Z,58.81
2017-05-14T07:02:04.140Z,59.58
2017-05-14T07:02:44.758Z,59.23
2017-05-14T07:03:25.366Z,58.84
2017-05-14T07:04:05.949Z,59.13
2017-05-14T07:04:46.534Z,59.23
2017-05-14T07:05:27.113Z,59.13
2017-05-14T07:06:07.711Z,59.25
2017-05-14T07:06:48.316Z,58.48
2017-05-14T07:07:28.913Z,58.87
2017-05-14T07:08:09.511Z,58.87
2017-05-14T07:08:50.113Z,59.16
2017-05-14T07:09:30.688Z,58.68
2017-05-14T07:10:11.278Z,58.9
2017-05-14T07:10:51.857Z,58.32
2017-05-14T07:11:32.442Z,58.42
2017-05-14T07:12:13.046Z,58.03
2017-05-14T07:12:53.652Z,57.54
2017-05-14T07:13:34.231Z,57.26
2017-05-14T07:14:14.830Z,56.77
2017-05-14T07:14:55.404Z,56.29
2017-05-14T07:15:36.022Z,56.58
2017-05-14T07:16:16.581Z,56.41
2017-05-14T07:16:57.149Z,56.71
2017-05-14T07:17:37.744Z,56.41
2017-05-14T07:18:18.364Z,56.03
2017-05-14T07:18:58.971Z,55.55
2017-05-14T07:19:39.562Z,55.55
2017-05-14T07:20:20.153Z,55.55
2017-05-14T07:21:00.762Z,55.74
2017-05-14T07:21:41.355Z,54.49
2017-05-14T07:22:21.969Z,54.1
2017-05-14T07:23:02.548Z,54.68
2017-05-14T07:23:43.156Z,55.16
2017-05-14T07:24:23.762Z,53.71
2017-05-14T07:25:04.348Z,53.35
2017-05-14T07:25:44.929Z,54.1
2017-05-14T07:26:25.544Z,54.99
2017-05-14T07:27:06.128Z,54.68
2017-05-14T07:27:46.762Z,54.51
2017-05-14T07:28:27.358Z,55.19
2017-05-14T07:29:07.955Z,55.09
2017-05-14T07:29:48.555Z,54.51
2017-05-14T07:30:29.177Z,54.41
2017-05-14T07:31:09.763Z,53.83
2017-05-14T07:31:50.355Z,53.77
2017-05-14T07:32:30.947Z,53.09
2017-05-14T07:33:11.549Z,52.7
2017-05-14T07:33:52.298Z,51.93
2017-05-14T07:34:33.225Z,51.83
2017-05-14T07:35:14.193Z,52.87
2017-05-14T07:35:55.211Z,52.87
2017-05-14T07:36:36.035Z,52
2017-05-14T07:37:17.366Z,52.02
2017-05-14T07:37:58.337Z,53.47
2017-05-14T07:38:39.589Z,51.64
2017-05-14T07:39:20.227Z,51.93
2017-05-14T07:40:00.842Z,52.89
2017-05-14T07:40:41.442Z,53.28
2017-05-14T07:41:22.514Z,53.67
2017-05-14T07:42:03.642Z,52.61
2017-05-14T07:42:44.741Z,52.99
2017-05-14T07:43:25.700Z,53.38
2017-05-14T07:44:06.318Z,53.19
2017-05-14T07:44:46.895Z,53.09
2017-05-14T07:45:27.978Z,53.09
2017-05-14T07:46:08.833Z,52.61
2017-05-14T07:46:49.653Z,52.41
2017-05-14T07:47:30.340Z,52.31
2017-05-14T07:48:10.935Z,52.89
2017-05-14T07:48:51.691Z,52.61
2017-05-14T07:49:32.682Z,50.57
2017-05-14T07:50:13.816Z,50.76
2017-05-14T07:50:54.539Z,50.74
2017-05-14T07:51:35.141Z,51.93
2017-05-14T07:52:16.182Z,52.87
2017-05-14T07:52:57.160Z,52.87
2017-05-14T07:53:37.759Z,53.35
2017-05-14T07:54:18.408Z,53.25
2017-05-14T07:54:58.993Z,53.55
2017-05-14T07:55:39.605Z,52.7
2017-05-14T07:56:20.419Z,53.28
2017-05-14T07:57:01.314Z,53.77
2017-05-14T07:57:41.918Z,54.03
2017-05-14T07:58:22.690Z,51.51
2017-05-14T07:59:03.432Z,53.67
2017-05-14T07:59:44.030Z,53.77
2017-05-14T08:00:24.603Z,53.25
2017-05-14T08:01:05.208Z,53.77
2017-05-14T08:01:45.833Z,52.39
2017-05-14T08:02:26.424Z,53.19
2017-05-14T08:03:07.296Z,52.77
2017-05-14T08:04:54.843Z,51.93
2017-05-14T08:05:35.430Z,50.96
2017-05-14T08:06:16.034Z,50.96
2017-05-14T08:06:56.659Z,50.86
2017-05-14T08:07:37.253Z,50.93
2017-05-14T08:08:17.889Z,50.74
2017-05-14T08:08:58.468Z,51.71
2017-05-14T08:09:39.042Z,51.35
2017-05-14T08:10:19.639Z,52.7
2017-05-14T08:11:00.221Z,53.38
2017-05-14T08:11:40.809Z,52.61
2017-05-14T08:12:21.412Z,54.15
2017-05-14T08:13:02.035Z,53.57
2017-05-14T08:13:42.617Z,53.57
2017-05-14T08:14:23.204Z,52.51
2017-05-14T08:15:03.774Z,51.93
2017-05-14T08:15:44.350Z,52.24
2017-05-14T08:16:24.930Z,49.9
2017-05-14T08:17:05.565Z,47.69
2017-05-14T08:17:46.185Z,48.35
2017-05-14T08:18:26.781Z,50.96
2017-05-14T08:19:07.396Z,51.08
2017-05-14T08:19:48.009Z,50.98
2017-05-14T08:20:28.593Z,49.82
2017-05-14T08:21:09.175Z,50.6
2017-05-14T08:21:49.756Z,50.02
2017-05-14T08:22:30.341Z,50.89
2017-05-14T08:23:10.928Z,49.44
2017-05-14T08:23:51.511Z,48.57
2017-05-14T08:24:32.132Z,47.79
2017-05-14T08:25:12.714Z,46.34
2017-05-14T08:25:53.303Z,47.31
2017-05-14T08:26:33.870Z,48.64
2017-05-14T08:27:14.520Z,48.64
2017-05-14T08:27:55.134Z,45.93
2017-05-14T08:28:35.735Z,45.54
2017-05-14T08:29:16.316Z,45.91
2017-05-14T08:29:56.892Z,48.49
2017-05-14T08:30:37.497Z,49.95
2017-05-14T08:31:18.077Z,48.49
2017-05-14T08:31:58.692Z,48.3
2017-05-14T08:32:39.252Z,48.49
2017-05-14T08:33:19.870Z,49.85
2017-05-14T08:34:00.462Z,52.45
2017-05-14T08:34:41.032Z,52.84
2017-05-14T08:35:21.625Z,52.17
2017-05-14T08:36:02.205Z,50.91
2017-05-14T08:36:42.785Z,49.27
2017-05-14T08:37:23.397Z,48.97
2017-05-14T08:38:03.982Z,50.62
2017-05-14T08:38:44.590Z,51.01
2017-05-14T08:39:25.205Z,49.27
2017-05-14T08:40:06.419Z,49.37
2017-05-14T08:40:47.696Z,51.29
2017-05-14T08:41:31.025Z,51.68
2017-05-14T08:42:12.657Z,51.68
2017-05-14T08:42:56.353Z,52.65
2017-05-14T08:43:45.069Z,52.77
2017-05-14T08:44:30.991Z,52.58
2017-05-14T08:45:16.054Z,52.48
2017-05-14T08:46:05.529Z,51.03
2017-05-14T08:46:47.919Z,48.71